sensor_id;sensor_type;location;lat;lon;timestamp;pressure;altitude;pressure_sealevel;temperature;humidity
63665;BME280;49820;33.966;73.390;2023-02-15T00:01:21;78905.38;;;6.85;53.56
63665;BME280;49820;33.966;73.390;2023-02-15T00:03:55;78911.13;;;7.06;52.26
63665;BME280;49820;33.966;73.390;2023-02-15T00:06:25;78901.84;;;7.05;52.26
63665;BME280;49820;33.966;73.390;2023-02-15T00:08:55;78903.16;;;7.06;52.48
63665;BME280;49820;33.966;73.390;2023-02-15T00:11:24;78885.06;;;6.55;54.02
63665;BME280;49820;33.966;73.390;2023-02-15T00:14:14;78875.47;;;6.13;55.53
63665;BME280;49820;33.966;73.390;2023-02-15T00:16:43;78898.03;;;6.10;56.23
63665;BME280;49820;33.966;73.390;2023-02-15T00:19:14;78901.47;;;5.94;56.30
63665;BME280;49820;33.966;73.390;2023-02-15T00:21:44;78916.06;;;5.93;57.00
63665;BME280;49820;33.966;73.390;2023-02-15T00:24:16;78914.13;;;5.80;56.22
63665;BME280;49820;33.966;73.390;2023-02-15T00:26:46;78894.31;;;5.74;55.81
63665;BME280;49820;33.966;73.390;2023-02-15T00:29:17;78911.41;;;5.94;56.68
63665;BME280;49820;33.966;73.390;2023-02-15T00:31:47;78881.72;;;5.69;57.13
63665;BME280;49820;33.966;73.390;2023-02-15T00:34:19;78915.38;;;5.99;56.73
63665;BME280;49820;33.966;73.390;2023-02-15T00:36:48;78918.53;;;6.18;54.94
63665;BME280;49820;33.966;73.390;2023-02-15T00:39:17;78917.25;;;6.10;55.50
63665;BME280;49820;33.966;73.390;2023-02-15T00:41:47;78900.69;;;6.14;53.86
63665;BME280;49820;33.966;73.390;2023-02-15T00:44:17;78920.84;;;6.64;53.85
63665;BME280;49820;33.966;73.390;2023-02-15T00:46:46;78905.78;;;6.40;54.65
63665;BME280;49820;33.966;73.390;2023-02-15T00:49:15;78878.78;;;6.13;54.69
63665;BME280;49820;33.966;73.390;2023-02-15T00:51:44;78903.13;;;6.38;54.23
63665;BME280;49820;33.966;73.390;2023-02-15T00:54:13;78895.28;;;6.24;55.28
63665;BME280;49820;33.966;73.390;2023-02-15T00:56:42;78892.13;;;6.01;55.65
63665;BME280;49820;33.966;73.390;2023-02-15T00:59:12;78897.53;;;5.89;55.67
63665;BME280;49820;33.966;73.390;2023-02-15T01:01:41;78900.97;;;5.67;55.58
63665;BME280;49820;33.966;73.390;2023-02-15T01:04:09;78899.00;;;5.66;55.41
63665;BME280;49820;33.966;73.390;2023-02-15T01:06:38;78862.78;;;5.26;55.67
63665;BME280;49820;33.966;73.390;2023-02-15T01:09:09;78885.94;;;5.31;56.42
63665;BME280;49820;33.966;73.390;2023-02-15T01:11:38;78907.75;;;5.38;57.01
63665;BME280;49820;33.966;73.390;2023-02-15T01:14:07;78895.97;;;5.07;57.11
63665;BME280;49820;33.966;73.390;2023-02-15T01:16:38;78897.97;;;5.06;57.42
63665;BME280;49820;33.966;73.390;2023-02-15T01:19:07;78901.94;;;5.05;57.40
63665;BME280;49820;33.966;73.390;2023-02-15T01:21:35;78921.06;;;5.20;57.96
63665;BME280;49820;33.966;73.390;2023-02-15T01:24:10;78900.00;;;4.95;58.27
63665;BME280;49820;33.966;73.390;2023-02-15T01:26:40;78897.34;;;4.95;58.51
63665;BME280;49820;33.966;73.390;2023-02-15T01:29:08;78878.28;;;4.69;58.34
63665;BME280;49820;33.966;73.390;2023-02-15T01:31:37;78927.16;;;4.84;59.14
63665;BME280;49820;33.966;73.390;2023-02-15T01:34:07;78863.78;;;4.47;59.21
63665;BME280;49820;33.966;73.390;2023-02-15T01:36:38;78894.03;;;5.01;57.70
63665;BME280;49820;33.966;73.390;2023-02-15T01:39:07;78915.00;;;5.48;56.05
63665;BME280;49820;33.966;73.390;2023-02-15T01:41:37;78895.72;;;5.57;56.08
63665;BME280;49820;33.966;73.390;2023-02-15T01:47:16;78889.19;;;5.38;56.50
63665;BME280;49820;33.966;73.390;2023-02-15T01:49:47;78917.00;;;5.39;57.49
63665;BME280;49820;33.966;73.390;2023-02-15T01:52:17;78896.59;;;5.15;57.53
63665;BME280;49820;33.966;73.390;2023-02-15T01:54:47;78902.66;;;4.93;58.20
63665;BME280;49820;33.966;73.390;2023-02-15T01:57:19;78908.66;;;4.72;58.37
63665;BME280;49820;33.966;73.390;2023-02-15T01:59:52;78907.25;;;4.95;57.23
63665;BME280;49820;33.966;73.390;2023-02-15T02:02:23;78909.16;;;5.25;56.76
63665;BME280;49820;33.966;73.390;2023-02-15T02:04:58;78918.47;;;6.30;52.66
63665;BME280;49820;33.966;73.390;2023-02-15T02:07:31;78929.88;;;6.89;52.59
63665;BME280;49820;33.966;73.390;2023-02-15T02:10:02;78931.84;;;6.93;52.29
63665;BME280;49820;33.966;73.390;2023-02-15T02:12:34;78927.78;;;7.02;53.70
63665;BME280;49820;33.966;73.390;2023-02-15T02:15:08;78939.81;;;7.56;51.05
63665;BME280;49820;33.966;73.390;2023-02-15T02:17:54;78935.44;;;7.90;51.71
63665;BME280;49820;33.966;73.390;2023-02-15T02:34:33;78934.94;;;9.92;43.12
63665;BME280;49820;33.966;73.390;2023-02-15T02:39:58;78973.00;;;10.94;41.59
63665;BME280;49820;33.966;73.390;2023-02-15T02:42:38;78947.50;;;10.99;41.37
63665;BME280;49820;33.966;73.390;2023-02-15T02:47:56;78969.63;;;11.84;38.36
63665;BME280;49820;33.966;73.390;2023-02-15T02:50:29;78968.81;;;12.16;37.85
63665;BME280;49820;33.966;73.390;2023-02-15T02:52:59;78974.38;;;12.08;37.55
63665;BME280;49820;33.966;73.390;2023-02-15T02:55:38;78985.94;;;12.28;37.12
63665;BME280;49820;33.966;73.390;2023-02-15T02:58:14;78980.88;;;12.67;36.41
63665;BME280;49820;33.966;73.390;2023-02-15T03:03:41;78996.00;;;13.04;35.73
63665;BME280;49820;33.966;73.390;2023-02-15T03:06:17;79001.69;;;12.91;36.24
63665;BME280;49820;33.966;73.390;2023-02-15T03:08:53;78988.47;;;13.08;35.97
63665;BME280;49820;33.966;73.390;2023-02-15T03:11:23;78992.06;;;13.48;34.75
63665;BME280;49820;33.966;73.390;2023-02-15T03:13:52;78969.41;;;13.43;34.28
63665;BME280;49820;33.966;73.390;2023-02-15T03:16:22;78995.25;;;13.98;34.40
63665;BME280;49820;33.966;73.390;2023-02-15T03:19:17;79004.28;;;14.32;33.91
63665;BME280;49820;33.966;73.390;2023-02-15T03:21:51;79004.31;;;14.09;35.04
63665;BME280;49820;33.966;73.390;2023-02-15T03:25:02;78992.63;;;13.96;35.90
63665;BME280;49820;33.966;73.390;2023-02-15T03:27:41;78999.88;;;14.23;33.81
63665;BME280;49820;33.966;73.390;2023-02-15T03:30:13;78995.84;;;14.44;34.57
63665;BME280;49820;33.966;73.390;2023-02-15T03:32:44;79018.94;;;14.79;33.15
63665;BME280;49820;33.966;73.390;2023-02-15T03:35:15;79024.31;;;14.58;34.18
63665;BME280;49820;33.966;73.390;2023-02-15T03:37:54;78994.06;;;14.37;35.72
63665;BME280;49820;33.966;73.390;2023-02-15T03:40:51;79026.81;;;14.64;35.79
63665;BME280;49820;33.966;73.390;2023-02-15T03:43:57;79017.19;;;14.28;40.25
63665;BME280;49820;33.966;73.390;2023-02-15T03:46:37;79025.56;;;14.61;38.14
63665;BME280;49820;33.966;73.390;2023-02-15T03:49:12;79016.66;;;14.67;39.21
63665;BME280;49820;33.966;73.390;2023-02-15T03:51:46;79006.72;;;14.82;38.34
63665;BME280;49820;33.966;73.390;2023-02-15T03:54:21;79012.09;;;15.03;39.37
63665;BME280;49820;33.966;73.390;2023-02-15T04:05:39;79013.81;;;16.06;35.51
63665;BME280;49820;33.966;73.390;2023-02-15T04:08:09;78997.00;;;16.06;37.74
63665;BME280;49820;33.966;73.390;2023-02-15T04:10:38;79021.13;;;16.10;37.00
63665;BME280;49820;33.966;73.390;2023-02-15T04:13:31;79018.66;;;16.03;37.11
63665;BME280;49820;33.966;73.390;2023-02-15T04:16:00;79020.41;;;15.92;37.31
63665;BME280;49820;33.966;73.390;2023-02-15T04:18:39;79019.31;;;15.85;36.97
63665;BME280;49820;33.966;73.390;2023-02-15T04:21:29;79004.72;;;15.41;37.09
63665;BME280;49820;33.966;73.390;2023-02-15T04:24:17;79020.06;;;15.44;37.80
63665;BME280;49820;33.966;73.390;2023-02-15T04:27:05;79007.56;;;15.37;37.05
63665;BME280;49820;33.966;73.390;2023-02-15T04:29:36;78997.84;;;15.06;38.01
63665;BME280;49820;33.966;73.390;2023-02-15T04:32:04;79021.78;;;15.14;38.73
63665;BME280;49820;33.966;73.390;2023-02-15T04:34:33;78975.13;;;15.01;38.96
63665;BME280;49820;33.966;73.390;2023-02-15T04:37:02;79029.69;;;15.39;38.17
63665;BME280;49820;33.966;73.390;2023-02-15T04:39:31;79015.69;;;15.16;37.33
63665;BME280;49820;33.966;73.390;2023-02-15T04:42:00;79016.63;;;14.87;39.07
63665;BME280;49820;33.966;73.390;2023-02-15T04:44:29;79016.88;;;15.00;39.04
63665;BME280;49820;33.966;73.390;2023-02-15T04:46:58;79028.53;;;15.53;38.89
63665;BME280;49820;33.966;73.390;2023-02-15T04:49:27;79011.47;;;15.21;38.95
63665;BME280;49820;33.966;73.390;2023-02-15T04:51:56;79029.28;;;15.12;36.94
63665;BME280;49820;33.966;73.390;2023-02-15T04:54:25;79028.75;;;14.86;39.66
63665;BME280;49820;33.966;73.390;2023-02-15T04:56:54;79030.63;;;15.32;39.38
63665;BME280;49820;33.966;73.390;2023-02-15T04:59:24;79045.78;;;15.20;40.04
63665;BME280;49820;33.966;73.390;2023-02-15T05:01:52;79028.72;;;15.28;38.68
63665;BME280;49820;33.966;73.390;2023-02-15T05:04:23;79023.41;;;15.26;38.58
63665;BME280;49820;33.966;73.390;2023-02-15T05:06:52;79052.94;;;15.28;40.38
63665;BME280;49820;33.966;73.390;2023-02-15T05:09:21;79013.88;;;14.69;37.74
63665;BME280;49820;33.966;73.390;2023-02-15T05:11:50;79048.25;;;15.08;40.41
63665;BME280;49820;33.966;73.390;2023-02-15T05:14:19;79032.22;;;15.04;39.32
63665;BME280;49820;33.966;73.390;2023-02-15T05:16:48;79051.69;;;15.25;41.00
63665;BME280;49820;33.966;73.390;2023-02-15T05:19:17;79020.25;;;15.19;40.46
63665;BME280;49820;33.966;73.390;2023-02-15T05:21:46;79055.44;;;15.53;39.62
63665;BME280;49820;33.966;73.390;2023-02-15T05:24:15;79067.94;;;15.62;39.11
63665;BME280;49820;33.966;73.390;2023-02-15T05:27:03;79030.25;;;15.42;38.93
63665;BME280;49820;33.966;73.390;2023-02-15T05:29:50;79016.69;;;15.25;37.61
63665;BME280;49820;33.966;73.390;2023-02-15T05:32:19;79061.31;;;15.78;37.84
63665;BME280;49820;33.966;73.390;2023-02-15T05:34:48;79071.53;;;16.13;38.98
63665;BME280;49820;33.966;73.390;2023-02-15T05:37:18;79067.94;;;16.37;37.20
63665;BME280;49820;33.966;73.390;2023-02-15T05:39:47;79073.50;;;17.04;36.96
63665;BME280;49820;33.966;73.390;2023-02-15T05:42:15;79029.41;;;17.27;36.02
63665;BME280;49820;33.966;73.390;2023-02-15T05:44:44;79060.59;;;17.40;34.83
63665;BME280;49820;33.966;73.390;2023-02-15T05:47:13;79045.53;;;18.10;34.07
63665;BME280;49820;33.966;73.390;2023-02-15T05:49:42;79075.00;;;18.79;32.38
63665;BME280;49820;33.966;73.390;2023-02-15T05:52:12;79057.09;;;18.55;28.94
63665;BME280;49820;33.966;73.390;2023-02-15T05:54:44;79052.56;;;18.66;32.21
63665;BME280;49820;33.966;73.390;2023-02-15T05:57:13;79068.75;;;19.12;33.59
63665;BME280;49820;33.966;73.390;2023-02-15T05:59:45;79060.91;;;19.35;29.71
63665;BME280;49820;33.966;73.390;2023-02-15T06:02:14;79077.34;;;19.61;30.41
63665;BME280;49820;33.966;73.390;2023-02-15T06:04:43;79062.94;;;19.35;29.91
63665;BME280;49820;33.966;73.390;2023-02-15T06:07:13;79082.00;;;19.03;29.81
63665;BME280;49820;33.966;73.390;2023-02-15T06:09:42;79068.53;;;19.75;31.91
63665;BME280;49820;33.966;73.390;2023-02-15T06:12:11;79056.25;;;20.18;32.74
63665;BME280;49820;33.966;73.390;2023-02-15T06:14:39;79077.28;;;20.72;32.16
63665;BME280;49820;33.966;73.390;2023-02-15T06:17:09;79068.22;;;20.90;30.58
63665;BME280;49820;33.966;73.390;2023-02-15T06:19:38;79049.97;;;21.02;31.18
63665;BME280;49820;33.966;73.390;2023-02-15T06:22:08;79058.06;;;21.54;31.47
63665;BME280;49820;33.966;73.390;2023-02-15T06:24:37;79047.03;;;22.07;30.73
63665;BME280;49820;33.966;73.390;2023-02-15T06:27:06;79032.06;;;21.57;30.38
63665;BME280;49820;33.966;73.390;2023-02-15T06:29:35;79041.25;;;22.13;30.46
63665;BME280;49820;33.966;73.390;2023-02-15T06:32:04;79015.69;;;22.67;29.72
63665;BME280;49820;33.966;73.390;2023-02-15T06:34:34;79032.22;;;22.99;30.69
63665;BME280;49820;33.966;73.390;2023-02-15T06:37:03;79042.28;;;23.81;27.59
63665;BME280;49820;33.966;73.390;2023-02-15T06:39:31;79028.13;;;24.00;29.29
63665;BME280;49820;33.966;73.390;2023-02-15T06:42:00;79026.22;;;23.54;26.57
63665;BME280;49820;33.966;73.390;2023-02-15T06:44:29;79019.06;;;24.14;26.52
63665;BME280;49820;33.966;73.390;2023-02-15T06:46:58;79001.59;;;23.77;27.55
63665;BME280;49820;33.966;73.390;2023-02-15T06:49:27;79039.13;;;24.85;25.01
63665;BME280;49820;33.966;73.390;2023-02-15T06:51:56;79022.44;;;24.89;23.83
63665;BME280;49820;33.966;73.390;2023-02-15T06:54:25;79020.88;;;24.82;21.36
63665;BME280;49820;33.966;73.390;2023-02-15T06:56:54;79017.41;;;24.73;24.00
63665;BME280;49820;33.966;73.390;2023-02-15T06:59:23;79033.53;;;24.87;23.22
63665;BME280;49820;33.966;73.390;2023-02-15T07:01:53;79037.72;;;24.97;24.44
63665;BME280;49820;33.966;73.390;2023-02-15T07:04:25;79020.00;;;24.21;24.22
63665;BME280;49820;33.966;73.390;2023-02-15T07:06:54;79031.94;;;24.16;25.59
63665;BME280;49820;33.966;73.390;2023-02-15T07:09:23;79024.81;;;24.74;23.16
63665;BME280;49820;33.966;73.390;2023-02-15T07:11:52;79018.75;;;25.76;26.16
63665;BME280;49820;33.966;73.390;2023-02-15T07:14:50;79005.72;;;25.76;22.91
63665;BME280;49820;33.966;73.390;2023-02-15T07:17:19;79009.47;;;24.68;22.29
63665;BME280;49820;33.966;73.390;2023-02-15T07:20:05;79024.03;;;24.54;23.61
63665;BME280;49820;33.966;73.390;2023-02-15T07:22:37;78999.91;;;23.72;26.25
63665;BME280;49820;33.966;73.390;2023-02-15T07:25:09;79020.28;;;23.05;23.38
63665;BME280;49820;33.966;73.390;2023-02-15T07:27:39;78994.84;;;23.32;26.72
63665;BME280;49820;33.966;73.390;2023-02-15T07:30:11;79007.47;;;24.03;25.68
63665;BME280;49820;33.966;73.390;2023-02-15T07:32:45;78980.41;;;24.84;22.81
63665;BME280;49820;33.966;73.390;2023-02-15T07:35:36;78980.44;;;23.88;24.39
63665;BME280;49820;33.966;73.390;2023-02-15T07:38:04;78970.19;;;22.30;26.26
63665;BME280;49820;33.966;73.390;2023-02-15T07:40:33;78987.69;;;22.69;27.27
63665;BME280;49820;33.966;73.390;2023-02-15T07:43:02;78978.47;;;22.98;25.54
63665;BME280;49820;33.966;73.390;2023-02-15T07:45:31;78986.44;;;23.02;25.47
63665;BME280;49820;33.966;73.390;2023-02-15T07:48:03;78978.09;;;22.93;25.34
63665;BME280;49820;33.966;73.390;2023-02-15T07:50:32;78967.13;;;22.82;27.67
63665;BME280;49820;33.966;73.390;2023-02-15T07:53:02;78983.94;;;22.28;26.96
63665;BME280;49820;33.966;73.390;2023-02-15T07:55:32;78971.56;;;21.69;26.76
63665;BME280;49820;33.966;73.390;2023-02-15T07:58:05;78958.69;;;20.94;29.10
63665;BME280;49820;33.966;73.390;2023-02-15T08:00:34;78967.38;;;21.09;30.10
63665;BME280;49820;33.966;73.390;2023-02-15T08:03:26;78967.63;;;21.05;29.45
63665;BME280;49820;33.966;73.390;2023-02-15T08:05:59;78972.19;;;20.31;30.45
63665;BME280;49820;33.966;73.390;2023-02-15T08:08:29;78964.44;;;20.10;31.03
63665;BME280;49820;33.966;73.390;2023-02-15T08:11:06;78964.75;;;20.44;31.36
63665;BME280;49820;33.966;73.390;2023-02-15T08:19:22;78956.72;;;18.90;35.00
63665;BME280;49820;33.966;73.390;2023-02-15T08:21:57;78949.53;;;18.55;34.27
63665;BME280;49820;33.966;73.390;2023-02-15T08:24:28;78959.50;;;18.44;34.91
63665;BME280;49820;33.966;73.390;2023-02-15T08:26:58;78933.19;;;18.28;36.32
63665;BME280;49820;33.966;73.390;2023-02-15T08:29:29;78941.94;;;18.14;35.88
63665;BME280;49820;33.966;73.390;2023-02-15T08:32:03;78951.56;;;17.79;36.30
63665;BME280;49820;33.966;73.390;2023-02-15T08:34:37;78926.88;;;17.41;35.41
63665;BME280;49820;33.966;73.390;2023-02-15T08:37:07;78931.16;;;17.20;38.52
63665;BME280;49820;33.966;73.390;2023-02-15T08:39:37;78946.34;;;17.27;38.46
63665;BME280;49820;33.966;73.390;2023-02-15T08:42:09;78956.22;;;17.01;37.83
63665;BME280;49820;33.966;73.390;2023-02-15T08:44:38;78945.75;;;17.10;37.12
63665;BME280;49820;33.966;73.390;2023-02-15T08:47:07;78937.78;;;17.06;37.54
63665;BME280;49820;33.966;73.390;2023-02-15T08:49:37;78936.03;;;16.84;37.46
63665;BME280;49820;33.966;73.390;2023-02-15T08:52:06;78895.97;;;16.73;38.47
63665;BME280;49820;33.966;73.390;2023-02-15T08:54:36;78917.72;;;17.66;34.86
63665;BME280;49820;33.966;73.390;2023-02-15T08:57:05;78881.78;;;17.38;34.70
63665;BME280;49820;33.966;73.390;2023-02-15T08:59:35;78919.25;;;17.29;32.43
63665;BME280;49820;33.966;73.390;2023-02-15T09:02:03;78927.53;;;16.77;33.67
63665;BME280;49820;33.966;73.390;2023-02-15T09:04:33;78903.63;;;16.50;34.65
63665;BME280;49820;33.966;73.390;2023-02-15T09:07:02;78914.25;;;16.71;34.91
63665;BME280;49820;33.966;73.390;2023-02-15T09:09:32;78911.00;;;17.02;34.37
63665;BME280;49820;33.966;73.390;2023-02-15T09:12:01;78925.78;;;17.51;36.00
63665;BME280;49820;33.966;73.390;2023-02-15T09:14:30;78912.50;;;17.62;31.86
63665;BME280;49820;33.966;73.390;2023-02-15T09:16:59;78904.28;;;16.84;31.55
63665;BME280;49820;33.966;73.390;2023-02-15T09:19:29;78915.34;;;16.78;33.35
63665;BME280;49820;33.966;73.390;2023-02-15T09:21:59;78898.63;;;16.40;33.08
63665;BME280;49820;33.966;73.390;2023-02-15T09:24:32;78879.09;;;16.23;33.00
63665;BME280;49820;33.966;73.390;2023-02-15T09:27:02;78897.91;;;16.41;34.23
63665;BME280;49820;33.966;73.390;2023-02-15T09:29:31;78888.56;;;16.22;33.45
63665;BME280;49820;33.966;73.390;2023-02-15T09:32:00;78898.97;;;16.49;33.83
63665;BME280;49820;33.966;73.390;2023-02-15T09:34:29;78889.81;;;17.23;34.26
63665;BME280;49820;33.966;73.390;2023-02-15T09:37:01;78914.13;;;18.01;31.96
63665;BME280;49820;33.966;73.390;2023-02-15T09:39:31;78895.91;;;18.30;31.19
63665;BME280;49820;33.966;73.390;2023-02-15T09:42:29;78907.34;;;17.55;31.94
63665;BME280;49820;33.966;73.390;2023-02-15T09:45:23;78898.81;;;17.66;31.51
63665;BME280;49820;33.966;73.390;2023-02-15T09:56:45;78891.25;;;17.68;30.22
63665;BME280;49820;33.966;73.390;2023-02-15T10:05:07;78890.94;;;17.60;31.27
63665;BME280;49820;33.966;73.390;2023-02-15T10:28:51;78846.41;;;19.31;28.20
63665;BME280;49820;33.966;73.390;2023-02-15T10:31:26;78867.75;;;18.97;30.22
63665;BME280;49820;33.966;73.390;2023-02-15T10:34:16;78874.69;;;18.79;29.06
63665;BME280;49820;33.966;73.390;2023-02-15T10:48:08;78863.59;;;18.41;36.89
63665;BME280;49820;33.966;73.390;2023-02-15T11:00:06;78861.47;;;17.85;35.05
63665;BME280;49820;33.966;73.390;2023-02-15T11:08:59;78876.84;;;17.42;35.16
63665;BME280;49820;33.966;73.390;2023-02-15T11:11:37;78888.09;;;17.32;34.55
63665;BME280;49820;33.966;73.390;2023-02-15T11:14:39;78887.53;;;17.30;34.55
63665;BME280;49820;33.966;73.390;2023-02-15T11:17:19;78876.84;;;17.74;34.00
63665;BME280;49820;33.966;73.390;2023-02-15T11:22:24;78879.72;;;17.84;34.32
63665;BME280;49820;33.966;73.390;2023-02-15T11:24:54;78855.41;;;17.70;35.82
63665;BME280;49820;33.966;73.390;2023-02-15T11:27:31;78883.84;;;17.52;34.40
63665;BME280;49820;33.966;73.390;2023-02-15T11:30:19;78877.94;;;17.01;37.24
63665;BME280;49820;33.966;73.390;2023-02-15T11:32:51;78882.31;;;16.44;36.44
63665;BME280;49820;33.966;73.390;2023-02-15T11:35:38;78876.16;;;16.12;37.23
63665;BME280;49820;33.966;73.390;2023-02-15T11:38:17;78862.28;;;16.39;35.07
63665;BME280;49820;33.966;73.390;2023-02-15T11:41:03;78877.13;;;16.88;33.81
63665;BME280;49820;33.966;73.390;2023-02-15T11:43:51;78892.09;;;16.35;34.44
63665;BME280;49820;33.966;73.390;2023-02-15T11:46:21;78882.13;;;16.15;34.38
63665;BME280;49820;33.966;73.390;2023-02-15T11:48:51;78860.94;;;15.52;34.29
63665;BME280;49820;33.966;73.390;2023-02-15T11:51:21;78875.66;;;15.55;35.94
63665;BME280;49820;33.966;73.390;2023-02-15T11:53:52;78854.84;;;15.16;35.57
63665;BME280;49820;33.966;73.390;2023-02-15T11:56:25;78884.25;;;15.22;35.03
63665;BME280;49820;33.966;73.390;2023-02-15T11:59:03;78877.75;;;14.78;35.14
63665;BME280;49820;33.966;73.390;2023-02-15T12:01:36;78874.03;;;14.69;35.55
63665;BME280;49820;33.966;73.390;2023-02-15T12:09:50;78884.41;;;14.00;36.90
63665;BME280;49820;33.966;73.390;2023-02-15T12:12:30;78864.03;;;13.65;37.24
63665;BME280;49820;33.966;73.390;2023-02-15T12:15:02;78890.16;;;13.88;36.59
63665;BME280;49820;33.966;73.390;2023-02-15T12:17:53;78871.09;;;13.54;37.22
63665;BME280;49820;33.966;73.390;2023-02-15T12:20:33;78892.03;;;13.29;37.76
63665;BME280;49820;33.966;73.390;2023-02-15T12:23:08;78905.34;;;13.31;37.81
63665;BME280;49820;33.966;73.390;2023-02-15T12:30:56;78875.28;;;12.58;40.14
63665;BME280;49820;33.966;73.390;2023-02-15T12:33:29;78880.66;;;12.33;41.60
63665;BME280;49820;33.966;73.390;2023-02-15T12:36:09;78872.94;;;12.21;41.71
63665;BME280;49820;33.966;73.390;2023-02-15T12:38:40;78883.66;;;11.96;42.25
63665;BME280;49820;33.966;73.390;2023-02-15T12:41:25;78879.72;;;11.93;41.26
63665;BME280;49820;33.966;73.390;2023-02-15T12:46:41;78867.03;;;11.65;41.84
63665;BME280;49820;33.966;73.390;2023-02-15T12:49:18;78877.91;;;11.59;42.79
63665;BME280;49820;33.966;73.390;2023-02-15T12:51:54;78888.06;;;11.52;43.14
63665;BME280;49820;33.966;73.390;2023-02-15T12:54:31;78904.31;;;11.44;44.00
63665;BME280;49820;33.966;73.390;2023-02-15T12:57:14;78898.19;;;11.50;42.84
63665;BME280;49820;33.966;73.390;2023-02-15T13:00:02;78887.94;;;11.31;43.20
63665;BME280;49820;33.966;73.390;2023-02-15T13:02:44;78892.72;;;11.27;42.61
63665;BME280;49820;33.966;73.390;2023-02-15T13:05:32;78889.81;;;11.08;43.32
63665;BME280;49820;33.966;73.390;2023-02-15T13:08:19;78911.28;;;11.04;41.74
63665;BME280;49820;33.966;73.390;2023-02-15T13:11:19;78906.41;;;10.84;42.84
63665;BME280;49820;33.966;73.390;2023-02-15T13:16:33;78912.47;;;10.80;42.44
63665;BME280;49820;33.966;73.390;2023-02-15T13:19:29;78902.56;;;10.46;44.33
63665;BME280;49820;33.966;73.390;2023-02-15T13:22:06;78916.13;;;10.36;43.39
63665;BME280;49820;33.966;73.390;2023-02-15T13:24:40;78899.63;;;10.25;44.93
63665;BME280;49820;33.966;73.390;2023-02-15T13:27:17;78894.53;;;10.13;44.07
63665;BME280;49820;33.966;73.390;2023-02-15T13:29:51;78886.78;;;9.99;43.48
63665;BME280;49820;33.966;73.390;2023-02-15T13:32:31;78901.06;;;9.85;45.50
63665;BME280;49820;33.966;73.390;2023-02-15T13:35:05;78882.88;;;9.58;44.90
63665;BME280;49820;33.966;73.390;2023-02-15T13:40:54;78908.94;;;9.91;44.45
63665;BME280;49820;33.966;73.390;2023-02-15T13:49:14;78940.53;;;9.41;47.17
63665;BME280;49820;33.966;73.390;2023-02-15T13:52:18;78953.03;;;9.12;48.46
63665;BME280;49820;33.966;73.390;2023-02-15T14:00:59;78947.88;;;9.41;45.24
63665;BME280;49820;33.966;73.390;2023-02-15T14:11:32;78956.75;;;9.66;42.23
63665;BME280;49820;33.966;73.390;2023-02-15T14:17:02;78964.75;;;9.68;40.68
63665;BME280;49820;33.966;73.390;2023-02-15T14:19:58;78961.56;;;9.60;40.89
63665;BME280;49820;33.966;73.390;2023-02-15T14:22:42;78972.88;;;9.60;42.63
63665;BME280;49820;33.966;73.390;2023-02-15T14:25:25;78974.13;;;9.65;41.72
63665;BME280;49820;33.966;73.390;2023-02-15T14:28:08;78982.09;;;9.67;41.64
63665;BME280;49820;33.966;73.390;2023-02-15T14:30:44;78932.66;;;9.33;41.13
63665;BME280;49820;33.966;73.390;2023-02-15T14:35:45;78973.41;;;9.69;41.09
63665;BME280;49820;33.966;73.390;2023-02-15T14:41:21;78977.00;;;9.90;41.79
63665;BME280;49820;33.966;73.390;2023-02-15T14:44:31;78986.41;;;9.89;42.50
63665;BME280;49820;33.966;73.390;2023-02-15T14:47:05;78984.47;;;9.83;40.88
63665;BME280;49820;33.966;73.390;2023-02-15T14:49:39;78965.09;;;9.85;40.98
63665;BME280;49820;33.966;73.390;2023-02-15T14:52:10;78988.28;;;9.94;41.04
63665;BME280;49820;33.966;73.390;2023-02-15T14:59:59;78996.97;;;9.93;41.02
63665;BME280;49820;33.966;73.390;2023-02-15T15:02:42;78994.97;;;9.93;41.30
63665;BME280;49820;33.966;73.390;2023-02-15T15:07:54;79001.84;;;9.82;41.64
63665;BME280;49820;33.966;73.390;2023-02-15T15:12:58;79005.75;;;9.87;41.99
63665;BME280;49820;33.966;73.390;2023-02-15T15:18:03;79012.06;;;10.07;41.39
63665;BME280;49820;33.966;73.390;2023-02-15T15:20:46;78979.13;;;9.83;41.95
63665;BME280;49820;33.966;73.390;2023-02-15T15:25:52;79015.38;;;10.09;41.79
63665;BME280;49820;33.966;73.390;2023-02-15T15:43:53;79028.78;;;9.66;43.48
63665;BME280;49820;33.966;73.390;2023-02-15T15:49:21;79018.31;;;9.13;43.75
63665;BME280;49820;33.966;73.390;2023-02-15T15:51:52;79018.22;;;9.17;44.06
63665;BME280;49820;33.966;73.390;2023-02-15T15:54:23;79047.84;;;9.42;43.37
63665;BME280;49820;33.966;73.390;2023-02-15T15:56:59;79032.63;;;9.34;43.30
63665;BME280;49820;33.966;73.390;2023-02-15T15:59:33;79049.91;;;9.39;43.51
63665;BME280;49820;33.966;73.390;2023-02-15T16:02:13;79048.16;;;9.22;44.58
63665;BME280;49820;33.966;73.390;2023-02-15T16:04:45;79044.97;;;9.11;45.10
63665;BME280;49820;33.966;73.390;2023-02-15T16:12:36;79053.06;;;9.05;44.60
63665;BME280;49820;33.966;73.390;2023-02-15T16:15:19;79057.22;;;8.94;45.56
63665;BME280;49820;33.966;73.390;2023-02-15T16:17:56;79038.56;;;8.94;44.25
63665;BME280;49820;33.966;73.390;2023-02-15T16:20:29;79048.41;;;9.03;42.91
63665;BME280;49820;33.966;73.390;2023-02-15T16:26:25;79058.69;;;9.30;43.23
63665;BME280;49820;33.966;73.390;2023-02-15T16:29:01;79042.81;;;9.24;42.42
63665;BME280;49820;33.966;73.390;2023-02-15T16:31:30;79041.69;;;9.08;43.02
63665;BME280;49820;33.966;73.390;2023-02-15T16:33:59;79047.75;;;9.03;43.21
63665;BME280;49820;33.966;73.390;2023-02-15T16:36:29;79059.59;;;9.14;43.02
63665;BME280;49820;33.966;73.390;2023-02-15T16:41:28;79032.09;;;8.78;43.60
63665;BME280;49820;33.966;73.390;2023-02-15T16:44:17;79052.06;;;8.79;44.39
63665;BME280;49820;33.966;73.390;2023-02-15T16:46:49;79058.72;;;8.83;43.49